Edgewater, New Jersey
Current Conditions -  °F | °C
As of 7:51 PM on Tuesday 21 Oct 2014 (Local Time) from KNYC Reporting Station
Broken Clouds Broken Clouds  
Wind Chill: 17°   Ceiling: 10000
Heat Index: 17°   Visibility: 10mi
Dew Point: 10°   Wind: 6mph
Humidity: 65%   Direction: 60°ENE
Pressure: 29.9"   Gusts: NA
Location:  40.83°N, 73.97°W
Report Text: KNYC 212351Z AUTO 06005KT 10SM FEW075 BKN100 17/10 A2990 RMK AO2 SLP115 T01670100 10194 20161 53015 $
Loading
Personal Weather Stations






























Interactive Weather Map
Tropical Storm Tracking
New forecast layout! Learn more

10-Day Weather Forecast

Advertisements
Track Severe Weather on mobile